Time;durP1;ratioP1;P1;durP2;ratioP2;P2;SDS_P1;SDS_P2;PMS_P1;PMS_P2;Temp;Humidity;BMP_temperature;BMP_pressure;BME280_temperature;BME280_humidity;BME280_pressure;Samples;Min_cycle;Max_cycle;Signal;HPM_P1;HPM_P2
2022/05/22 00:00:42;;;;;;;3.97;1.17;;;;;;;12.31;57.79;100359.91;5068030;28;20048;-40
2022/05/22 00:03:10;;;;;;;3.17;1.00;;;;;;;12.29;57.53;100359.06;5062461;28;20048;-40
2022/05/22 00:05:37;;;;;;;2.15;0.77;;;;;;;12.28;57.90;100359.94;5062206;28;20109;-47
2022/05/22 00:08:22;;;;;;;3.03;1.00;;;;;;;12.26;57.50;100359.06;5060852;28;20044;-46
2022/05/22 00:10:49;;;;;;;3.42;0.60;;;;;;;12.23;58.54;100353.91;5061012;28;20403;-42
2022/05/22 00:13:15;;;;;;;4.35;1.45;;;;;;;12.20;57.79;100357.34;5059283;28;20095;-44
2022/05/22 00:16:36;;;;;;;3.67;0.93;;;;;;;12.20;57.52;100354.75;5061256;28;20048;-40
2022/05/22 00:18:29;;;;;;;3.65;0.82;;;;;;;12.17;57.51;100352.19;5061451;28;20048;-42
2022/05/22 00:20:57;;;;;;;3.40;1.10;;;;;;;12.14;57.44;100351.31;5060907;28;20053;-44
2022/05/22 00:23:44;;;;;;;2.25;1.00;;;;;;;12.12;58.37;100350.50;5062609;28;20067;-46
2022/05/22 00:26:12;;;;;;;4.10;0.77;;;;;;;12.10;57.39;100344.44;5059594;28;20098;-42
2022/05/22 00:28:41;;;;;;;4.30;1.63;;;;;;;12.07;58.29;100335.78;5066014;28;20482;-47
2022/05/22 00:31:10;;;;;;;4.25;0.93;;;;;;;12.06;57.83;100341.84;5064215;28;20048;-41
2022/05/22 00:33:38;;;;;;;3.78;1.08;;;;;;;12.04;57.37;100334.91;5062746;28;20048;-42
2022/05/22 00:36:06;;;;;;;3.35;0.82;;;;;;;12.01;57.62;100330.59;5064547;28;20044;-44
2022/05/22 00:38:34;;;;;;;4.03;1.23;;;;;;;11.98;58.46;100320.22;5060648;28;20064;-46
2022/05/22 00:41:01;;;;;;;2.67;1.30;;;;;;;11.96;58.14;100321.97;5058675;28;20063;-44
2022/05/22 00:46:07;;;;;;;1.92;1.65;;;;;;;11.90;58.27;100321.97;5045252;27;20410;-47
2022/05/22 00:48:35;;;;;;;1.95;1.23;;;;;;;11.88;58.92;100323.69;5021665;28;20607;-47
2022/05/22 00:51:07;;;;;;;4.93;2.28;;;;;;;11.86;57.58;100328.06;5023289;28;20054;-44
2022/05/22 00:53:38;;;;;;;3.97;2.88;;;;;;;11.82;58.84;100324.59;5020678;28;20045;-44
2022/05/22 00:56:07;;;;;;;2.83;1.92;;;;;;;11.79;58.18;100325.47;5022785;28;20470;-40
2022/05/22 00:58:35;;;;;;;4.68;2.63;;;;;;;11.77;58.64;100327.22;5023307;28;20045;-45
2022/05/22 01:01:03;;;;;;;3.45;2.08;;;;;;;11.75;58.61;100321.16;5022380;28;20388;-45
2022/05/22 01:03:31;;;;;;;4.88;1.67;;;;;;;11.74;58.46;100322.03;5021716;28;20485;-43
2022/05/22 01:06:16;;;;;;;3.60;1.98;;;;;;;11.68;58.51;100319.44;5024489;28;20072;-44
2022/05/22 01:08:43;;;;;;;3.85;2.22;;;;;;;11.67;58.12;100322.91;5023561;28;20103;-46
2022/05/22 01:11:23;;;;;;;7.55;2.30;;;;;;;11.61;58.60;100309.94;5019877;28;20050;-46
2022/05/22 01:13:55;;;;;;;4.35;1.67;;;;;;;11.60;57.92;100322.06;5020956;28;20050;-43
2022/05/22 01:16:39;;;;;;;4.10;2.75;;;;;;;11.56;58.56;100317.75;5019231;28;20452;-47
2022/05/22 01:19:16;;;;;;;3.05;2.53;;;;;;;11.50;58.20;100317.75;5024697;28;20050;-41
2022/05/22 01:22:05;;;;;;;5.70;1.92;;;;;;;11.42;58.71;100304.81;5018506;28;20283;-42
2022/05/22 01:24:31;;;;;;;4.97;2.20;;;;;;;11.44;58.20;100313.44;5014197;28;20048;-46
2022/05/22 01:27:02;;;;;;;2.75;1.55;;;;;;;11.42;59.10;100310.84;5021652;28;20061;-46
2022/05/22 01:29:34;;;;;;;2.45;1.73;;;;;;;11.38;58.28;100303.13;5008345;28;20104;-44
2022/05/22 01:32:00;;;;;;;4.00;2.00;;;;;;;11.36;58.59;100303.13;5020082;28;20050;-44
2022/05/22 01:34:27;;;;;;;3.17;2.47;;;;;;;11.32;59.20;100304.81;5002343;28;20065;-46
2022/05/22 01:36:54;;;;;;;2.03;1.60;;;;;;;11.30;59.19;100292.75;5005338;28;20112;-44
2022/05/22 01:39:20;;;;;;;4.35;2.35;;;;;;;11.27;59.08;100296.19;5010173;28;20107;-44
2022/05/22 01:41:47;;;;;;;2.10;1.38;;;;;;;11.26;59.38;100297.06;4997084;28;20054;-42
2022/05/22 01:44:14;;;;;;;2.75;1.92;;;;;;;11.25;58.38;100297.06;5003045;28;20042;-45
2022/05/22 01:46:41;;;;;;;6.80;2.33;;;;;;;11.21;58.98;100295.34;5001023;28;20050;-44
2022/05/22 01:49:08;;;;;;;4.38;2.05;;;;;;;11.19;58.30;100295.34;5003236;28;20311;-43
2022/05/22 01:51:38;;;;;;;4.50;1.65;;;;;;;11.15;59.21;100293.63;5031887;28;20092;-45
2022/05/22 01:54:05;;;;;;;;;;;;;;;10.97;59.60;100294.53;5005242;28;20097;-45
2022/05/22 01:56:34;;;;;;;2.65;1.40;;;;;;;11.04;58.33;100284.13;4993468;28;19944;-48
2022/05/22 01:59:01;;;;;;;3.55;1.80;;;;;;;11.03;59.33;100291.91;4990404;28;20050;-44
2022/05/22 02:01:27;;;;;;;3.92;1.98;;;;;;;11.01;58.47;100278.09;4992307;28;20073;-39
2022/05/22 02:03:54;;;;;;;5.03;2.08;;;;;;;10.99;59.24;100283.28;4995719;28;20058;-40
2022/05/22 02:06:21;;;;;;;7.55;2.13;;;;;;;10.97;58.59;100277.22;4991547;28;20526;-44
2022/05/22 02:08:48;;;;;;;2.75;1.70;;;;;;;10.94;58.97;100279.81;4996784;28;20058;-39
2022/05/22 02:11:14;;;;;;;3.28;1.58;;;;;;;10.92;59.43;100276.38;4990177;28;20046;-43
2022/05/22 02:13:44;;;;;;;3.75;2.28;;;;;;;10.90;58.74;100270.31;4990601;28;20474;-44
2022/05/22 02:16:12;;;;;;;3.72;1.95;;;;;;;10.87;58.82;100267.72;4994521;28;20784;-42
2022/05/22 02:18:39;;;;;;;3.78;1.85;;;;;;;10.85;59.00;100264.28;4991936;28;20046;-43
2022/05/22 02:21:06;;;;;;;3.25;1.88;;;;;;;10.83;58.87;100268.59;4989838;28;20050;-43
2022/05/22 02:23:34;;;;;;;3.65;1.92;;;;;;;10.82;59.52;100261.69;4985667;28;20050;-43
2022/05/22 02:26:02;;;;;;;2.13;0.43;;;;;;;10.80;59.45;100266.84;4989098;28;20422;-43
2022/05/22 02:28:30;;;;;;;3.65;1.92;;;;;;;10.78;59.43;100266.00;4989518;28;20108;-44
2022/05/22 02:31:00;;;;;;;4.13;1.88;;;;;;;10.75;59.50;100271.19;4992652;28;20054;-41
2022/05/22 02:33:27;;;;;;;3.55;1.83;;;;;;;10.70;59.26;100257.38;4992126;28;20065;-47
2022/05/22 02:35:53;;;;;;;2.92;2.03;;;;;;;10.65;59.45;100259.97;4987380;28;20050;-43
2022/05/22 02:38:20;;;;;;;2.00;1.40;;;;;;;10.63;59.28;100259.97;4989200;28;20112;-40
2022/05/22 02:40:46;;;;;;;3.20;2.90;;;;;;;10.60;58.89;100257.38;4992960;28;20395;-43
2022/05/22 02:43:14;;;;;;;2.33;1.77;;;;;;;10.59;58.87;100247.00;4992959;28;20110;-44
2022/05/22 02:45:41;;;;;;;4.55;1.95;;;;;;;10.54;59.58;100242.69;4982715;28;20081;-46
2022/05/22 02:48:10;;;;;;;4.93;1.92;;;;;;;10.53;59.87;100242.69;5017590;28;20762;-42
2022/05/22 02:50:37;;;;;;;2.65;1.95;;;;;;;10.49;59.96;100231.47;4991240;28;20046;-44
2022/05/22 02:53:05;;;;;;;3.35;1.63;;;;;;;10.47;59.17;100229.75;4990707;28;20132;-43
2022/05/22 02:55:31;;;;;;;6.63;1.90;;;;;;;10.44;59.49;100225.41;4995632;28;20109;-46
2022/05/22 02:57:58;;;;;;;3.33;1.58;;;;;;;10.43;59.42;100227.97;4988025;28;20058;-41
2022/05/22 03:00:27;;;;;;;3.90;1.88;;;;;;;10.40;59.79;100228.81;4983379;28;20055;-42
2022/05/22 03:02:54;;;;;;;2.72;1.88;;;;;;;10.39;59.61;100225.38;4970023;28;20053;-42
2022/05/22 03:05:21;;;;;;;4.15;2.17;;;;;;;10.37;59.58;100213.31;4983080;28;20058;-44
2022/05/22 03:07:48;;;;;;;3.65;1.63;;;;;;;10.36;59.68;100211.56;4985719;28;20050;-44
2022/05/22 03:10:17;;;;;;;3.00;1.92;;;;;;;10.34;59.98;100214.13;4988673;28;20053;-43
2022/05/22 03:12:44;;;;;;;2.58;2.38;;;;;;;10.34;59.86;100213.28;4988914;28;20054;-49
2022/05/22 03:15:13;;;;;;;4.43;2.08;;;;;;;10.33;59.18;100211.56;4988592;28;20066;-46
2022/05/22 03:17:39;;;;;;;1.73;1.30;;;;;;;10.31;59.95;100214.16;4989849;28;20421;-42
2022/05/22 03:20:07;;;;;;;2.10;1.90;;;;;;;10.31;59.18;100214.16;4992042;28;20046;-41
2022/05/22 03:22:34;;;;;;;4.25;1.70;;;;;;;10.29;59.12;100211.56;4990474;28;20046;-42
2022/05/22 03:25:02;;;;;;;3.38;2.13;;;;;;;10.27;59.74;100200.34;4985626;28;20035;-43
2022/05/22 03:27:28;;;;;;;2.10;1.80;;;;;;;10.23;59.62;100197.75;4983038;28;20082;-46
2022/05/22 03:29:55;;;;;;;2.80;2.53;;;;;;;10.21;59.59;100195.16;4990194;28;20047;-42
2022/05/22 03:32:22;;;;;;;3.85;1.85;;;;;;;10.17;59.50;100188.25;4989596;28;20478;-45
2022/05/22 03:34:54;;;;;;;4.32;2.05;;;;;;;10.13;59.55;100183.91;4991345;28;20096;-43
2022/05/22 03:37:24;;;;;;;3.13;0.50;;;;;;;10.11;59.66;100185.66;4988168;28;20425;-41
2022/05/22 03:39:53;;;;;;;4.55;1.63;;;;;;;10.10;59.69;100187.38;4986799;28;20057;-46
2022/05/22 03:42:19;;;;;;;2.45;1.60;;;;;;;10.09;59.89;100182.19;4984393;28;20719;-48
2022/05/22 03:44:46;;;;;;;3.25;1.65;;;;;;;10.09;59.76;100179.59;4987703;28;20552;-46
2022/05/22 03:47:13;;;;;;;3.60;3.25;;;;;;;10.10;59.53;100181.34;4987459;28;20053;-43
2022/05/22 03:49:45;;;;;;;3.15;2.88;;;;;;;10.10;59.52;100174.44;4987627;28;20050;-45
2022/05/22 03:52:12;;;;;;;2.25;1.88;;;;;;;10.11;59.46;100180.47;4989128;28;20050;-41
2022/05/22 03:54:39;;;;;;;3.88;2.10;;;;;;;10.11;59.81;100177.88;4985478;28;20050;-40
2022/05/22 03:57:08;;;;;;;2.50;2.30;;;;;;;10.12;59.68;100174.44;4983701;28;20053;-42
2022/05/22 03:59:38;;;;;;;2.33;2.10;;;;;;;10.09;59.64;100171.84;4987363;28;20548;-41
2022/05/22 04:02:04;;;;;;;2.25;1.67;;;;;;;10.09;59.07;100171.84;4982818;28;20551;-42
2022/05/22 04:04:31;;;;;;;3.03;2.50;;;;;;;10.08;59.70;100162.34;4990313;28;20053;-45
2022/05/22 04:06:58;;;;;;;3.20;2.15;;;;;;;10.08;59.64;100170.13;4989677;28;20133;-46
2022/05/22 04:09:28;;;;;;;4.05;1.70;;;;;;;10.08;59.81;100170.13;4989521;28;20774;-45
2022/05/22 04:11:55;;;;;;;2.60;1.52;;;;;;;10.08;59.59;100170.13;4986541;28;20069;-48
2022/05/22 04:14:21;;;;;;;3.15;1.88;;;;;;;10.08;59.34;100165.81;4988615;28;20053;-41
2022/05/22 04:16:48;;;;;;;3.90;1.65;;;;;;;10.09;59.67;100161.47;4988915;28;20050;-44
2022/05/22 04:19:15;;;;;;;5.38;1.80;;;;;;;10.10;59.91;100164.06;4991697;28;20046;-42
2022/05/22 04:21:42;;;;;;;3.22;1.98;;;;;;;10.12;59.04;100166.66;4988974;28;20046;-42
2022/05/22 04:26:55;;;;;;;2.38;1.88;;;;;;;10.14;59.89;100164.97;4985769;28;20054;-45
2022/05/22 04:29:31;;;;;;;2.58;1.90;;;;;;;10.18;59.61;100166.69;4986502;28;20105;-42
2022/05/22 04:31:58;;;;;;;3.20;1.92;;;;;;;10.21;59.56;100161.53;5002368;28;20383;-40
2022/05/22 04:34:25;;;;;;;2.35;0.60;;;;;;;10.24;59.18;100156.31;4986437;28;20518;-44
2022/05/22 04:36:51;;;;;;;1.73;1.52;;;;;;;10.30;59.43;100160.63;4969466;28;20046;-46
2022/05/22 04:39:18;;;;;;;2.35;2.10;;;;;;;10.34;59.28;100159.78;4987457;28;20054;-46
2022/05/22 04:41:45;;;;;;;3.42;1.92;;;;;;;10.40;59.47;100164.09;4991339;28;20126;-41
2022/05/22 04:44:11;;;;;;;2.13;1.88;;;;;;;10.46;59.39;100165.84;4984723;28;20057;-49
2022/05/22 04:46:38;;;;;;;5.15;0.73;;;;;;;10.50;59.81;100152.91;4990675;28;20385;-48
2022/05/22 04:49:05;;;;;;;4.68;2.05;;;;;;;10.57;59.22;100152.91;4991342;28;20145;-42
2022/05/22 04:51:32;;;;;;;5.65;1.95;;;;;;;10.62;59.70;100151.16;4985328;28;20524;-42
2022/05/22 04:53:59;;;;;;;3.40;2.95;;;;;;;10.65;59.46;100148.56;4985478;28;20101;-44
2022/05/22 04:56:26;;;;;;;3.17;0.98;;;;;;;10.71;58.89;100151.13;4988189;28;20429;-43
2022/05/22 04:58:53;;;;;;;4.85;2.00;;;;;;;10.75;59.84;100152.88;4989271;28;20046;-44
2022/05/22 05:01:19;;;;;;;3.90;1.60;;;;;;;10.78;59.55;100145.09;4989645;28;20062;-43
2022/05/22 05:03:46;;;;;;;3.20;1.73;;;;;;;10.85;59.24;100151.13;4982611;28;20449;-41
2022/05/22 05:06:13;;;;;;;2.80;1.90;;;;;;;10.92;59.46;100158.00;4987130;28;20073;-45
2022/05/22 05:08:39;;;;;;;2.70;1.92;;;;;;;10.98;59.70;100159.72;4988136;28;20055;-43
2022/05/22 05:11:10;;;;;;;6.10;2.38;;;;;;;11.04;59.01;100159.72;4981226;28;20046;-42
2022/05/22 05:13:37;;;;;;;3.38;1.83;;;;;;;11.10;59.60;100158.84;4980818;28;20054;-43
2022/05/22 05:16:07;;;;;;;5.38;1.98;;;;;;;11.17;59.08;100160.53;4984523;28;20047;-46
2022/05/22 05:18:35;;;;;;;3.13;2.45;;;;;;;11.25;59.49;100152.72;4989206;28;20046;-45
2022/05/22 05:21:06;;;;;;;1.98;0.68;;;;;;;11.33;59.21;100155.31;4987485;28;20469;-42
2022/05/22 05:23:33;;;;;;;3.92;2.42;;;;;;;11.42;58.64;100162.19;4990101;28;20050;-43
2022/05/22 05:26:00;;;;;;;3.08;2.17;;;;;;;11.51;59.28;100156.94;4984582;28;20050;-43
2022/05/22 05:28:28;;;;;;;7.05;2.08;;;;;;;11.61;59.50;100149.97;4984422;28;20046;-42
2022/05/22 05:30:55;;;;;;;3.00;0.52;;;;;;;11.69;59.56;100150.78;4984901;28;20710;-47
2022/05/22 05:33:22;;;;;;;6.55;1.85;;;;;;;11.80;58.90;100155.06;4991992;28;20102;-44
2022/05/22 05:35:49;;;;;;;3.08;1.85;;;;;;;11.88;58.96;100153.28;4994190;28;20042;-42
2022/05/22 05:38:16;;;;;;;3.95;1.88;;;;;;;11.96;58.86;100145.47;4993241;28;20504;-42
2022/05/22 05:40:42;;;;;;;3.40;1.73;;;;;;;12.03;58.82;100141.06;4990670;28;20049;-43
2022/05/22 05:43:09;;;;;;;3.03;1.98;;;;;;;12.07;59.14;100143.69;4987882;28;20081;-45
2022/05/22 05:45:36;;;;;;;4.25;2.65;;;;;;;12.13;58.60;100147.09;4990532;28;20411;-43
2022/05/22 05:48:03;;;;;;;4.28;2.20;;;;;;;12.16;59.18;100150.50;4995034;28;20089;-43
2022/05/22 05:50:29;;;;;;;4.00;2.75;;;;;;;12.21;59.34;100151.34;4988345;28;20101;-44
2022/05/22 05:52:58;;;;;;;2.72;1.77;;;;;;;12.28;59.42;100152.16;4988918;28;20054;-44
2022/05/22 05:55:24;;;;;;;4.60;2.30;;;;;;;12.33;58.69;100150.38;4991038;28;20088;-40
2022/05/22 05:58:11;;;;;;;3.47;2.05;;;;;;;12.44;58.96;100159.81;4988571;28;20073;-44
2022/05/22 06:00:57;;;;;;;5.88;1.77;;;;;;;12.52;58.67;100165.81;4990037;28;20141;-39
2022/05/22 06:03:24;;;;;;;2.60;1.73;;;;;;;12.58;59.70;100165.78;4989592;28;20046;-43
2022/05/22 06:05:51;;;;;;;7.32;2.40;;;;;;;12.64;59.80;100163.97;4989275;28;20047;-46
2022/05/22 06:08:17;;;;;;;4.15;1.55;;;;;;;12.69;59.35;100167.38;4986962;28;20124;-46
2022/05/22 06:10:44;;;;;;;4.75;2.28;;;;;;;12.75;59.23;100156.94;4982116;28;20046;-43
2022/05/22 06:13:11;;;;;;;4.15;2.35;;;;;;;12.81;58.34;100164.69;4989490;28;20100;-42
2022/05/22 06:15:37;;;;;;;3.10;2.00;;;;;;;12.93;58.57;100161.09;4992866;28;20096;-43
2022/05/22 06:18:04;;;;;;;7.05;2.60;;;;;;;13.07;58.50;100165.28;4986216;28;20050;-41
2022/05/22 06:20:31;;;;;;;2.85;1.80;;;;;;;13.21;59.35;100159.91;4988657;28;20195;-43
2022/05/22 06:22:57;;;;;;;4.20;2.10;;;;;;;13.32;59.17;100152.84;4987334;28;20406;-40
2022/05/22 06:25:24;;;;;;;3.45;2.13;;;;;;;13.46;59.55;100152.66;4992151;28;20104;-43
2022/05/22 06:27:51;;;;;;;3.08;2.38;;;;;;;13.64;59.30;100157.69;4989429;28;20117;-40
2022/05/22 06:30:18;;;;;;;3.45;2.05;;;;;;;13.78;58.16;100150.50;4984651;28;20535;-45
2022/05/22 06:32:45;;;;;;;5.13;2.28;;;;;;;13.95;58.16;100145.06;4990898;28;20054;-41
2022/05/22 06:35:14;;;;;;;3.95;2.10;;;;;;;14.18;58.42;100148.22;4984744;28;20046;-43
2022/05/22 06:37:41;;;;;;;3.90;2.47;;;;;;;14.42;58.25;100140.88;4971765;28;20054;-43
2022/05/22 06:40:08;;;;;;;5.28;2.30;;;;;;;14.68;58.40;100147.34;4984101;28;20473;-42
2022/05/22 06:42:40;;;;;;;3.53;2.40;;;;;;;14.96;58.02;100145.13;4988525;28;20050;-41
2022/05/22 06:45:21;;;;;;;2.97;2.20;;;;;;;15.30;57.02;100140.97;4985316;28;20082;-41
2022/05/22 06:47:49;;;;;;;3.45;1.92;;;;;;;15.60;57.29;100135.97;4988240;28;20074;-45
2022/05/22 06:50:19;;;;;;;2.70;1.80;;;;;;;15.91;57.35;100132.66;4987114;28;20046;-49
2022/05/22 06:52:46;;;;;;;3.90;1.92;;;;;;;16.19;56.44;100125.94;4988760;28;20506;-46
2022/05/22 06:55:13;;;;;;;3.10;2.13;;;;;;;16.39;56.14;100120.22;4986155;28;20569;-42
2022/05/22 06:57:40;;;;;;;3.40;2.25;;;;;;;16.69;56.20;100116.84;4989826;28;20050;-45
2022/05/22 07:00:14;;;;;;;2.08;1.50;;;;;;;16.99;55.91;100110.78;4987239;28;20058;-43
2022/05/22 07:02:41;;;;;;;2.38;1.85;;;;;;;17.18;55.03;100106.78;4986665;28;20764;-43
2022/05/22 07:05:10;;;;;;;6.57;2.13;;;;;;;17.31;54.66;100101.16;4986779;28;20042;-45
2022/05/22 07:07:36;;;;;;;5.55;1.90;;;;;;;17.43;54.46;100090.31;4987512;28;20050;-40
2022/05/22 07:10:03;;;;;;;4.15;2.13;;;;;;;17.68;54.65;100096.56;4988434;28;20097;-45
2022/05/22 07:12:30;;;;;;;4.28;1.90;;;;;;;17.95;54.47;100094.81;4987837;28;20057;-45
2022/05/22 07:14:57;;;;;;;5.03;2.47;;;;;;;18.17;53.36;100093.28;4987164;28;20168;-46
2022/05/22 07:17:24;;;;;;;3.00;1.85;;;;;;;18.26;52.45;100089.47;4988463;28;20042;-48
2022/05/22 07:19:53;;;;;;;5.35;1.67;;;;;;;18.43;52.73;100089.75;4988632;28;20051;-46
2022/05/22 07:22:20;;;;;;;4.13;1.77;;;;;;;18.66;52.69;100088.09;4985963;28;20047;-42
2022/05/22 07:24:47;;;;;;;2.88;1.30;;;;;;;18.87;52.22;100090.84;4990094;28;20047;-41
2022/05/22 07:27:14;;;;;;;4.22;1.75;;;;;;;19.05;51.05;100078.78;4989616;28;20490;-43
2022/05/22 07:29:43;;;;;;;4.00;1.77;;;;;;;19.30;51.29;100080.53;4987126;28;20785;-43
2022/05/22 07:32:13;;;;;;;4.88;2.05;;;;;;;19.61;50.73;100081.06;4983043;28;20053;-46
2022/05/22 07:34:40;;;;;;;2.28;1.92;;;;;;;19.96;51.02;100086.66;4986706;28;20074;-43
2022/05/22 07:37:09;;;;;;;3.35;2.00;;;;;;;20.23;50.34;100078.56;4985698;28;20057;-47
2022/05/22 07:39:36;;;;;;;3.05;2.15;;;;;;;20.44;50.15;100091.72;4984041;28;20101;-45
2022/05/22 07:42:03;;;;;;;3.83;1.60;;;;;;;20.69;49.19;100085.38;4986499;28;20220;-45
2022/05/22 07:44:30;;;;;;;6.38;2.35;;;;;;;20.90;48.14;100087.97;4984762;28;20077;-44
2022/05/22 07:46:57;;;;;;;3.97;1.52;;;;;;;21.03;48.37;100094.41;4987538;28;21023;-41
2022/05/22 07:52:12;;;;;;;4.63;2.08;;;;;;;21.44;47.75;100092.53;4986729;28;20046;-47
2022/05/22 07:54:48;;;;;;;4.40;1.27;;;;;;;21.61;46.20;100088.25;4986658;28;23269;-52
2022/05/22 07:57:16;;;;;;;2.88;1.58;;;;;;;21.80;46.78;100083.81;4985384;28;20141;-46
2022/05/22 07:59:42;;;;;;;3.50;1.83;;;;;;;21.94;46.08;100077.00;4983790;28;20054;-43
2022/05/22 08:02:12;;;;;;;3.25;1.88;;;;;;;22.03;45.18;100078.31;4989029;28;20050;-44
2022/05/22 08:04:41;;;;;;;4.80;1.90;;;;;;;22.08;45.29;100076.28;4987853;28;20096;-45
2022/05/22 08:07:09;;;;;;;3.40;2.15;;;;;;;22.26;45.00;100074.50;4989753;28;20054;-43
2022/05/22 08:09:36;;;;;;;6.47;2.42;;;;;;;22.45;45.21;100068.25;4989876;28;20123;-42
2022/05/22 08:12:04;;;;;;;3.95;1.85;;;;;;;22.67;45.16;100068.03;4978464;28;20058;-46
2022/05/22 08:14:30;;;;;;;3.50;2.10;;;;;;;22.88;44.50;100065.16;5000409;28;20050;-42
2022/05/22 08:17:01;;;;;;;2.95;0.93;;;;;;;23.01;44.13;100060.06;4987142;28;20800;-44
2022/05/22 08:19:28;;;;;;;1.90;1.55;;;;;;;23.16;43.32;100068.06;4987537;28;20047;-45
2022/05/22 08:21:54;;;;;;;4.05;1.63;;;;;;;23.32;43.10;100068.06;4989981;28;20058;-46
2022/05/22 08:24:21;;;;;;;4.00;1.48;;;;;;;23.56;43.67;100063.22;4989368;28;20054;-46
2022/05/22 08:26:48;;;;;;;3.45;1.65;;;;;;;23.77;42.68;100052.34;4990737;28;20081;-48
2022/05/22 08:29:14;;;;;;;6.55;2.20;;;;;;;24.03;42.44;100060.53;4985522;28;20045;-46
2022/05/22 08:31:41;;;;;;;4.25;1.55;;;;;;;24.26;41.97;100051.25;4992102;28;20054;-43
2022/05/22 08:34:09;;;;;;;4.20;3.05;;;;;;;24.44;41.81;100066.09;4983881;28;20054;-44
2022/05/22 08:36:36;;;;;;;6.28;2.08;;;;;;;24.61;40.86;100052.69;4989145;28;20046;-47
2022/05/22 08:39:05;;;;;;;5.10;1.85;;;;;;;24.75;40.84;100048.31;4988810;28;20117;-44
2022/05/22 08:41:37;;;;;;;5.47;2.17;;;;;;;24.84;40.47;100050.41;4981414;28;20109;-47
2022/05/22 08:44:15;;;;;;;4.65;1.83;;;;;;;24.96;40.96;100047.97;4988361;28;20074;-46
2022/05/22 08:47:04;;;;;;;3.47;0.77;;;;;;;25.06;39.89;100041.09;4986411;28;20430;-47
2022/05/22 08:49:46;;;;;;;5.45;1.98;;;;;;;25.10;38.93;100026.75;4987911;28;20042;-49
2022/05/22 08:52:29;;;;;;;4.43;1.73;;;;;;;25.22;39.34;100016.28;4991457;28;20509;-46
2022/05/22 08:55:08;;;;;;;3.70;1.58;;;;;;;25.42;39.24;100026.44;4985254;28;20078;-45
2022/05/22 09:00:56;;;;;;;3.08;1.83;;;;;;;25.80;39.55;100013.38;4987216;28;20073;-44
2022/05/22 09:03:30;;;;;;;3.20;1.92;;;;;;;25.95;38.46;100005.34;4988294;28;21206;-44
2022/05/22 09:06:04;;;;;;;5.15;2.00;;;;;;;25.97;38.52;100000.78;4987027;28;20054;-46
2022/05/22 09:08:43;;;;;;;3.75;1.67;;;;;;;26.10;38.14;99998.16;4998904;28;20081;-46
2022/05/22 09:11:24;;;;;;;2.75;1.75;;;;;;;26.14;37.92;99995.16;4988488;28;20077;-49
2022/05/22 09:13:57;;;;;;;4.53;1.77;;;;;;;26.27;38.49;99991.66;4992192;28;20054;-54
2022/05/22 09:16:30;;;;;;;5.78;2.30;;;;;;;26.40;37.66;99989.00;4990136;28;20038;-56
2022/05/22 09:28:17;;;;;;;4.72;1.27;;;;;;;26.75;35.88;99976.84;5052141;28;20754;-50
2022/05/22 09:39:01;;;;;;;2.05;0.57;;;;;;;27.30;35.28;99979.06;5069960;28;20392;-44
2022/05/22 10:07:52;;;;;;;6.22;0.93;;;;;;;27.75;34.48;99945.59;5063989;28;20700;-49
2022/05/22 10:13:10;;;;;;;6.82;2.47;;;;;;;28.15;34.84;99934.53;5041336;28;20405;-48
2022/05/22 10:29:14;;;;;;;3.05;2.13;;;;;;;28.11;33.96;99922.44;4994123;28;20409;-46
2022/05/22 10:31:53;;;;;;;5.78;1.58;;;;;;;28.22;34.40;99919.75;4965923;28;20053;-49
2022/05/22 10:34:47;;;;;;;3.25;1.42;;;;;;;28.20;32.62;99921.69;4962731;28;20082;-46
2022/05/22 10:37:43;;;;;;;2.95;0.77;;;;;;;28.16;33.06;99909.59;4952537;28;20755;-49
2022/05/22 10:40:15;;;;;;;2.10;1.15;;;;;;;27.94;32.99;99908.66;4958261;28;20071;-47
2022/05/22 10:42:45;;;;;;;2.30;1.38;;;;;;;28.00;34.21;99901.13;4943726;28;20070;-44
2022/05/22 10:52:44;;;;;;;4.07;1.55;;;;;;;27.73;33.41;99902.34;4998868;28;20075;-43
2022/05/22 10:55:36;;;;;;;3.78;1.83;;;;;;;27.63;33.16;99896.88;5005093;28;20482;-45
2022/05/22 16:30:04;;;;;;;1.20;0.40;;;;;;;25.10;37.35;99502.16;5041295;28;20401;-37
2022/05/22 16:32:31;;;;;;;1.00;0.55;;;;;;;25.01;38.16;99508.97;4990784;28;20150;-39
2022/05/22 16:34:57;;;;;;;0.82;0.45;;;;;;;24.94;37.77;99502.41;4993616;28;20054;-42
2022/05/22 16:37:24;;;;;;;2.08;0.43;;;;;;;24.89;38.18;99505.38;4990623;28;20050;-38
2022/05/22 16:39:51;;;;;;;1.13;0.40;;;;;;;24.79;37.52;99501.69;4996299;28;20072;-40
2022/05/22 16:42:17;;;;;;;1.50;0.50;;;;;;;24.71;38.34;99490.75;4994694;28;20069;-44
2022/05/22 16:44:44;;;;;;;2.15;0.43;;;;;;;24.64;38.13;99493.88;4997138;28;20050;-41
2022/05/22 16:53:09;;;;;;;0.75;0.30;;;;;;;24.25;38.47;99485.13;4986703;28;20438;-41
2022/05/22 16:55:40;;;;;;;3.42;0.50;;;;;;;24.17;38.83;99485.66;4997750;28;20069;-43
2022/05/22 16:58:12;;;;;;;3.38;0.88;;;;;;;24.08;38.83;99487.09;4999450;28;20552;-45
2022/05/22 17:00:43;;;;;;;1.77;0.52;;;;;;;23.97;39.07;99476.38;4994355;28;20074;-42
2022/05/22 17:03:16;;;;;;;2.50;0.32;;;;;;;23.86;39.12;99483.28;4994137;28;20081;-44
2022/05/22 17:05:44;;;;;;;2.97;1.20;;;;;;;23.84;39.72;99479.06;4988761;28;20054;-44
2022/05/22 17:08:16;;;;;;;2.85;1.17;;;;;;;23.77;38.84;99477.78;4994258;28;20549;-45
2022/05/22 17:10:43;;;;;;;1.38;0.32;;;;;;;23.71;39.50;99465.81;4996835;28;20042;-39
2022/05/22 17:13:11;;;;;;;1.63;0.93;;;;;;;23.67;39.29;99464.31;4996257;28;20066;-42
2022/05/22 17:15:38;;;;;;;3.33;0.40;;;;;;;23.58;39.88;99466.59;4999374;28;20066;-44
2022/05/22 17:18:04;;;;;;;1.75;0.43;;;;;;;23.51;40.16;99470.63;4995543;28;20548;-43
2022/05/22 17:20:32;;;;;;;1.90;0.80;;;;;;;23.46;39.92;99462.16;4994486;28;20050;-42
2022/05/22 17:22:59;;;;;;;0.73;0.40;;;;;;;23.40;40.45;99462.56;5001647;28;20046;-42
2022/05/22 17:25:27;;;;;;;2.65;0.60;;;;;;;23.34;40.40;99463.78;4999672;28;20061;-43
2022/05/22 17:27:57;;;;;;;1.67;0.88;;;;;;;23.26;40.28;99461.63;5000188;28;20065;-42
2022/05/22 17:30:27;;;;;;;1.35;0.50;;;;;;;23.16;40.65;99455.25;5000674;28;20413;-44
2022/05/22 17:32:56;;;;;;;1.15;0.60;;;;;;;23.08;40.98;99448.69;5001915;28;20068;-43
2022/05/22 17:35:26;;;;;;;0.88;0.80;;;;;;;23.02;40.39;99449.09;5016204;28;20541;-40
2022/05/22 17:37:56;;;;;;;2.65;0.60;;;;;;;22.97;41.11;99449.38;4997331;28;20058;-42
2022/05/22 17:40:32;;;;;;;1.88;0.82;;;;;;;22.93;41.23;99454.97;4988414;28;20038;-41
2022/05/22 17:43:01;;;;;;;4.20;0.60;;;;;;;22.90;40.96;99441.97;4978977;28;20054;-42
2022/05/22 17:45:28;;;;;;;0.80;0.20;;;;;;;22.90;40.78;99434.03;4987369;28;20124;-48
2022/05/22 17:47:56;;;;;;;1.90;0.50;;;;;;;22.88;41.60;99435.91;4986312;28;20082;-42
2022/05/22 17:50:34;;;;;;;2.90;0.63;;;;;;;22.90;41.92;99431.41;4978246;28;20057;-43
2022/05/22 17:53:03;;;;;;;1.48;0.40;;;;;;;22.91;41.45;99435.72;4983269;28;20496;-39
2022/05/22 17:55:30;;;;;;;2.08;0.40;;;;;;;22.90;41.56;99434.03;4990189;28;20051;-42
2022/05/22 17:57:58;;;;;;;1.60;0.40;;;;;;;22.89;42.14;99427.06;4988675;28;20597;-42
2022/05/22 18:00:24;;;;;;;2.03;0.50;;;;;;;22.91;41.72;99436.59;4988026;28;20414;-45
2022/05/22 18:02:51;;;;;;;1.27;0.60;;;;;;;22.89;42.27;99419.16;4988313;28;20050;-42
2022/05/22 18:05:18;;;;;;;2.28;0.98;;;;;;;22.88;42.24;99425.34;4989135;28;20121;-44
2022/05/22 18:07:46;;;;;;;2.97;0.70;;;;;;;22.84;42.55;99415.00;4988080;28;20050;-45
2022/05/22 18:10:17;;;;;;;1.00;0.80;;;;;;;22.81;42.85;99417.00;4987252;28;20363;-45
2022/05/22 18:18:16;;;;;;;0.77;0.43;;;;;;;22.65;42.86;99417.13;4987826;28;20050;-44
2022/05/22 18:20:43;;;;;;;1.70;0.82;;;;;;;22.57;42.40;99407.91;4989094;28;20050;-40
2022/05/22 18:23:11;;;;;;;3.03;0.95;;;;;;;22.53;43.40;99416.91;4988377;28;20061;-43
2022/05/22 18:25:41;;;;;;;2.78;0.50;;;;;;;22.48;42.97;99408.44;4986255;28;20055;-41
2022/05/22 18:30:56;;;;;;;1.77;0.60;;;;;;;22.26;43.51;99409.78;5050364;27;20410;-41
2022/05/22 18:33:24;;;;;;;1.60;0.55;;;;;;;22.20;43.34;99404.91;5019926;28;20042;-52
2022/05/22 18:35:51;;;;;;;1.50;0.50;;;;;;;22.13;43.31;99415.00;5017245;28;20752;-43
2022/05/22 18:38:18;;;;;;;1.17;0.55;;;;;;;22.06;43.74;99406.59;5020746;28;20458;-40
2022/05/22 18:40:44;;;;;;;2.08;0.52;;;;;;;22.00;43.81;99414.88;5021911;28;20111;-43